NCAR-RAP Real-Time Weather Data

Output produced by METARs form (20 January 2021  04:36 UTC)
found at http://weather.rap.ucar.edu/surface/
 
Conditions at: KSPI observed 20 January 2021  03:52 UTC
Temperature: -0.6°C (31°F)
Dewpoint: -5.6°C (22°F) [RH = 69%]
Pressure (altimeter): 30.29 inches Hg (1025.8 mb)
[Sea-level pressure: 1026.3 mb]
Winds: from the NW (310 degrees) at 13 MPH (11 knots; 5.7 m/s)
gusting to 22 MPH (19 knots; 9.9 m/s)
Visibility: 10 or more miles (16+ km)
Ceiling: at least 12,000 feet AGL
Clouds: few clouds at 3100 feet AGL
Present Weather: automated observation with no human augmentation;
there may or may not be significant weather present at this time
KSPI 200352Z AUTO 31011G19KT 10SM FEW031 M01/M06 A3029 RMK AO2 PK WND 31033/0254 SLP263 T10061056